Airfield :







YOU CAN JOIN US ON...

 
LOGIN :

Register | Disclaimer

   EN    FR    IT 

 









Legend :    VFR   Marginal VFR   IFR   Intensive IFR   Very Intensive IFR
Visi :
Ceiling :
>= 8 km
>= 3000ft
5 to 8 km
1000 to 3000 ft
1500m to 5 km
500 to 1000 ft
800 to 1500m
200 to 500 ft
< 800m
< 200 ft
Symbols :   Thunderstorms  Fog  Heavy snow  Heavy precipitations  Wind > 20 kt






- Airport Elevation : 461 ft
- IATA code : YYT


CYYT - St John's Int

CURRENT METAR :
  • 122100Z 26015G22KT 15SM BKN120 14/02 A2993 RMK AC6 SLP140 DENSITY ALT 500FT

EXPIRED METARs :
  • 122000Z 26016G21KT 15SM BKN120 13/02 A2993 RMK AC6 SLP140
  • 121900Z 27017G24KT 15SM BKN100 14/03 A2994 RMK AC6 SLP142
  • 121800Z 28019G25KT 15SM FEW030 BKN098 14/06 A2994 RMK SC1AC5 SLP143 DENSITY ALT 500FT

TAF TAF CYYT
Valid from the 12 at 18:00 until the 13 at 18:00 UTC


121738Z 1218/1318 27015G25KT P6SM FEW030 BKN100
TEMPO 1218/1224 BKN030
BECMG 1219/1221 25012G22KT
FM130000 22012KT P6SM SCT060
TEMPO 1300/1308 BKN060
FM130800 13010KT P6SM FEW008
PROB30 1308/1312 2SM BR BKN006
FM131200 10010KT P6SM FEW012
BECMG 1312/1314 09010KT SKC RMK NXT FCST BY 130000Z
CZQX FIR / North America



MET'MAP, your aeronautical weather chart ! - Copyright ORBIFLY December 2007 - Disclaimer

ORBIFLY MET'MAP TEAM :

Programming & Development : Alexandra Zaïnal
Concept & original design : Baudouin d'Aumeries
Assistance for programming : Marc-Olivier Méhu
Technical & hardware support : Manuel Goepfert

Contact : metmap@orbifly.com




SOURCES & CREDITS :

   NOAA